createdAt,value
2022-09-15T00:00:14.135Z,7.00
2022-09-15T00:03:16.155Z,7.60
2022-09-15T00:05:58.100Z,8.00
2022-09-15T00:08:40.609Z,7.20
2022-09-15T00:11:25.446Z,7.70
2022-09-15T00:14:09.218Z,7.90
2022-09-15T00:16:51.050Z,8.80
2022-09-15T00:19:32.904Z,8.00
2022-09-15T00:22:14.723Z,7.40
2022-09-15T00:24:56.594Z,7.70
2022-09-15T00:27:38.490Z,8.20
2022-09-15T00:30:20.281Z,8.20
2022-09-15T00:33:02.074Z,7.20
2022-09-15T00:35:46.542Z,7.50
2022-09-15T00:38:28.425Z,7.40
2022-09-15T00:41:12.230Z,7.40
2022-09-15T00:44:00.310Z,6.30
2022-09-15T00:46:58.663Z,6.50
2022-09-15T00:49:50.670Z,6.70
2022-09-15T00:52:38.516Z,7.60
2022-09-15T00:55:25.982Z,6.40
2022-09-15T00:58:12.075Z,6.80
2022-09-15T01:00:58.445Z,6.80
2022-09-15T01:03:40.783Z,7.00
2022-09-15T01:06:35.069Z,6.60
2022-09-15T01:09:22.801Z,6.70
2022-09-15T01:12:05.112Z,6.60
2022-09-15T01:14:46.900Z,6.70
2022-09-15T01:17:34.641Z,7.00
2022-09-15T01:20:57.591Z,7.60
2022-09-15T01:24:19.099Z,6.40
2022-09-15T01:27:42.213Z,6.60
2022-09-15T01:30:25.577Z,6.20
2022-09-15T01:33:26.141Z,6.90
2022-09-15T01:36:18.379Z,6.80
2022-09-15T01:39:09.536Z,6.80
2022-09-15T01:42:02.036Z,6.80
2022-09-15T01:44:49.665Z,6.70
2022-09-15T01:47:34.506Z,6.70
2022-09-15T01:50:21.035Z,6.60
2022-09-15T01:53:08.940Z,7.00
2022-09-15T01:56:07.664Z,7.10
2022-09-15T01:58:51.368Z,8.00
2022-09-15T02:01:44.871Z,8.00
2022-09-15T02:04:36.913Z,7.40
2022-09-15T02:07:45.322Z,7.90
2022-09-15T02:10:38.273Z,8.30
2022-09-15T02:13:41.161Z,8.20
2022-09-15T02:16:25.968Z,7.90
2022-09-15T02:19:14.770Z,8.20
2022-09-15T02:22:08.253Z,8.70
2022-09-15T02:25:14.126Z,8.20
2022-09-15T02:28:01.846Z,7.40
2022-09-15T02:30:46.808Z,7.60
2022-09-15T02:33:35.747Z,8.00
2022-09-15T02:36:20.672Z,7.00
2022-09-15T02:39:08.469Z,7.40
2022-09-15T02:41:50.570Z,7.40
2022-09-15T02:44:32.772Z,7.30
2022-09-15T02:47:14.668Z,7.00
2022-09-15T02:49:57.213Z,7.00
2022-09-15T02:52:39.200Z,7.30
2022-09-15T02:55:21.583Z,7.40
2022-09-15T02:58:04.197Z,7.20
2022-09-15T03:00:46.038Z,7.40
2022-09-15T03:03:27.886Z,7.60
2022-09-15T03:06:21.255Z,7.00
2022-09-15T03:09:07.551Z,8.20
2022-09-15T03:11:49.345Z,7.90
2022-09-15T03:14:32.877Z,8.30
2022-09-15T03:17:14.678Z,8.70
2022-09-15T03:19:56.463Z,8.60
2022-09-15T03:22:38.666Z,7.70
2022-09-15T03:25:21.073Z,6.60
2022-09-15T03:28:03.174Z,6.20
2022-09-15T03:30:45.725Z,6.50
2022-09-15T03:33:27.889Z,6.20
2022-09-15T03:36:09.888Z,6.00
2022-09-15T03:38:51.873Z,6.30
2022-09-15T03:41:33.780Z,7.00
2022-09-15T03:44:15.599Z,6.60
2022-09-15T03:46:58.492Z,6.50
2022-09-15T03:49:40.389Z,6.60
2022-09-15T03:52:22.181Z,6.60
2022-09-15T03:55:04.384Z,6.10
2022-09-15T03:57:46.177Z,7.10
2022-09-15T04:00:28.171Z,6.20
2022-09-15T04:03:10.377Z,6.80
2022-09-15T04:05:52.171Z,6.40
2022-09-15T04:08:33.965Z,6.70
2022-09-15T04:11:16.682Z,6.10
2022-09-15T04:13:59.088Z,6.90
2022-09-15T04:16:40.973Z,6.70
2022-09-15T04:19:22.879Z,7.10
2022-09-15T04:22:04.672Z,6.90
2022-09-15T04:24:49.641Z,8.30
2022-09-15T04:27:34.607Z,6.60
2022-09-15T04:30:16.400Z,7.30
2022-09-15T04:32:58.194Z,7.90
2022-09-15T04:35:39.987Z,7.10
2022-09-15T04:38:21.781Z,7.80
2022-09-15T04:41:04.904Z,8.10
2022-09-15T04:43:47.620Z,7.60
2022-09-15T04:46:29.578Z,8.00
2022-09-15T04:49:11.422Z,7.20
2022-09-15T04:51:53.921Z,7.10
2022-09-15T04:54:36.022Z,7.20
2022-09-15T04:57:18.327Z,7.30
2022-09-15T05:00:00.325Z,8.00
2022-09-15T05:02:42.221Z,7.40
2022-09-15T05:05:24.165Z,6.60
2022-09-15T05:08:06.728Z,7.50
2022-09-15T05:10:48.514Z,6.90
2022-09-15T05:13:30.522Z,7.30
2022-09-15T05:16:23.963Z,7.90
2022-09-15T05:19:05.863Z,9.10
2022-09-15T05:21:47.676Z,6.90
2022-09-15T05:24:29.469Z,6.30
2022-09-15T05:27:11.263Z,7.00
2022-09-15T05:30:09.724Z,6.50
2022-09-15T05:32:55.227Z,6.50
2022-09-15T05:35:37.020Z,6.90
2022-09-15T05:38:19.856Z,6.70
2022-09-15T05:41:07.554Z,6.60
2022-09-15T05:43:51.003Z,6.00
2022-09-15T05:46:32.858Z,6.50
2022-09-15T05:49:15.719Z,5.90
2022-09-15T05:51:57.508Z,6.10
2022-09-15T05:54:39.405Z,5.80
2022-09-15T05:57:21.397Z,7.10
2022-09-15T06:00:04.879Z,6.60
2022-09-15T06:02:53.870Z,7.20
2022-09-15T06:05:35.896Z,7.10
2022-09-15T06:08:17.667Z,6.50
2022-09-15T06:11:07.367Z,7.90
2022-09-15T06:13:49.675Z,8.50
2022-09-15T06:16:33.957Z,10.50
2022-09-15T06:19:15.819Z,11.10
2022-09-15T06:21:57.613Z,7.60
2022-09-15T06:24:39.405Z,7.40
2022-09-15T06:27:21.199Z,7.10
2022-09-15T06:30:04.017Z,7.20
2022-09-15T06:32:48.299Z,6.00
2022-09-15T06:35:30.264Z,6.60
2022-09-15T06:38:12.160Z,6.80
2022-09-15T06:41:00.713Z,6.60
2022-09-15T06:43:43.017Z,6.40
2022-09-15T06:46:26.856Z,6.00
2022-09-15T06:49:08.856Z,6.50
2022-09-15T06:51:50.650Z,6.00
2022-09-15T06:54:32.443Z,6.20
2022-09-15T06:57:14.653Z,6.20
2022-09-15T06:59:56.644Z,5.50
2022-09-15T07:02:38.718Z,6.20
2022-09-15T07:05:20.640Z,6.20
2022-09-15T07:08:02.950Z,6.50
2022-09-15T07:10:48.120Z,6.00
2022-09-15T07:13:30.526Z,5.60
2022-09-15T07:16:13.319Z,5.10
2022-09-15T07:18:57.295Z,5.40
2022-09-15T07:22:14.113Z,4.60
2022-09-15T07:24:55.896Z,4.90
2022-09-15T07:27:37.693Z,4.80
2022-09-15T07:30:19.481Z,4.30
2022-09-15T07:33:01.376Z,4.10
2022-09-15T07:35:44.603Z,4.70
2022-09-15T07:38:26.499Z,3.90
2022-09-15T07:41:12.595Z,4.30
2022-09-15T07:43:56.639Z,3.70
2022-09-15T07:46:39.047Z,3.40
2022-09-15T07:49:20.844Z,3.50
2022-09-15T07:52:02.842Z,3.50
2022-09-15T07:54:44.631Z,3.50
2022-09-15T07:57:27.449Z,3.30
2022-09-15T08:00:10.061Z,3.80
2022-09-15T08:02:56.998Z,3.20
2022-09-15T08:05:42.316Z,2.70
2022-09-15T08:08:27.529Z,3.50
2022-09-15T08:11:16.352Z,2.90
2022-09-15T08:14:02.294Z,3.10
2022-09-15T08:16:44.918Z,3.40
2022-09-15T08:19:30.643Z,3.00
2022-09-15T08:22:12.875Z,3.60
2022-09-15T08:24:54.668Z,2.80
2022-09-15T08:27:36.461Z,3.60
2022-09-15T08:30:18.972Z,2.70
2022-09-15T08:33:00.870Z,2.80
2022-09-15T08:35:42.661Z,2.60
2022-09-15T08:38:24.454Z,2.90
2022-09-15T08:41:12.089Z,2.50
2022-09-15T08:44:12.411Z,2.60
2022-09-15T08:49:55.967Z,2.50
2022-09-15T08:52:50.868Z,2.40
2022-09-15T08:55:52.936Z,2.50
2022-09-15T08:58:37.840Z,2.40
2022-09-15T09:01:43.003Z,2.20
2022-09-15T09:04:40.655Z,2.10
2022-09-15T09:07:38.301Z,2.40
2022-09-15T09:10:31.944Z,3.30
2022-09-15T09:13:38.725Z,3.00
2022-09-15T09:16:38.955Z,2.60
2022-09-15T09:22:18.439Z,2.50
2022-09-15T09:25:11.557Z,2.60
2022-09-15T09:27:58.596Z,2.30
2022-09-15T09:30:40.855Z,2.30
2022-09-15T09:33:25.548Z,2.50
2022-09-15T09:36:12.052Z,2.90
2022-09-15T09:38:55.996Z,2.30
2022-09-15T09:41:39.122Z,2.70
2022-09-15T09:44:21.222Z,2.30
2022-09-15T09:47:04.244Z,2.30
2022-09-15T09:49:49.306Z,2.30
2022-09-15T09:52:38.722Z,2.20
2022-09-15T09:55:23.928Z,2.20
2022-09-15T09:58:15.795Z,2.20
2022-09-15T10:01:10.711Z,2.10
2022-09-15T10:04:17.168Z,2.40
2022-09-15T10:06:59.671Z,2.30
2022-09-15T10:09:50.638Z,2.20
2022-09-15T10:12:38.721Z,2.00
2022-09-15T10:15:26.453Z,1.90
2022-09-15T10:18:26.772Z,2.30
2022-09-15T10:21:10.012Z,2.40
2022-09-15T10:23:52.212Z,2.50
2022-09-15T10:26:34.930Z,2.10
2022-09-15T10:29:19.072Z,2.00
2022-09-15T10:32:16.878Z,2.20
2022-09-15T10:35:18.910Z,2.20
2022-09-15T10:38:11.865Z,2.20
2022-09-15T10:41:14.242Z,2.30
2022-09-15T10:44:54.197Z,2.30
2022-09-15T10:47:52.784Z,2.00
2022-09-15T10:51:09.502Z,2.30
2022-09-15T10:54:45.106Z,2.40
2022-09-15T10:57:35.524Z,2.10
2022-09-15T11:00:33.273Z,2.30
2022-09-15T11:03:39.464Z,2.30
2022-09-15T11:06:30.975Z,2.10
2022-09-15T11:09:20.784Z,2.60
2022-09-15T11:12:20.208Z,2.60
2022-09-15T11:15:24.718Z,2.60
2022-09-15T11:18:15.540Z,2.50
2022-09-15T11:21:03.763Z,2.40
2022-09-15T11:23:54.671Z,2.50
2022-09-15T11:26:44.349Z,2.60
2022-09-15T11:29:31.350Z,2.40
2022-09-15T11:32:18.913Z,2.20
2022-09-15T11:35:26.899Z,2.50
2022-09-15T11:38:40.949Z,2.20
2022-09-15T11:41:34.622Z,2.00
2022-09-15T11:44:29.424Z,2.30
2022-09-15T11:47:24.831Z,2.30
2022-09-15T11:50:28.744Z,2.50
2022-09-15T11:53:35.729Z,2.70
2022-09-15T11:56:36.807Z,2.20
2022-09-15T11:59:42.448Z,2.40
2022-09-15T12:02:40.761Z,2.60
2022-09-15T12:05:47.203Z,2.40
2022-09-15T12:08:41.687Z,2.60
2022-09-15T12:11:27.653Z,2.50
2022-09-15T12:14:35.589Z,2.80
2022-09-15T12:17:26.903Z,2.40
2022-09-15T12:20:29.755Z,2.70
2022-09-15T12:23:23.067Z,2.50
2022-09-15T12:26:15.011Z,2.50
2022-09-15T12:28:58.931Z,2.30
2022-09-15T12:31:41.638Z,2.30
2022-09-15T12:34:38.995Z,2.10
2022-09-15T12:37:22.180Z,2.20
2022-09-15T12:40:08.159Z,2.30
2022-09-15T12:42:50.912Z,2.10
2022-09-15T12:45:36.392Z,2.00
2022-09-15T12:48:25.811Z,2.20
2022-09-15T12:51:13.272Z,2.20
2022-09-15T12:54:02.847Z,2.00
2022-09-15T12:56:52.261Z,2.30
2022-09-15T12:59:34.443Z,2.10
2022-09-15T13:02:43.831Z,3.40
2022-09-15T13:05:46.359Z,2.40
2022-09-15T13:08:30.917Z,2.30
2022-09-15T13:11:17.525Z,2.30
2022-09-15T13:14:08.942Z,2.00
2022-09-15T13:17:07.334Z,1.90
2022-09-15T13:19:53.112Z,1.80
2022-09-15T13:22:41.458Z,2.00
2022-09-15T13:25:28.475Z,2.30
2022-09-15T13:31:23.622Z,1.60
2022-09-15T13:41:25.207Z,2.00
2022-09-15T13:44:32.395Z,3.50
2022-09-15T13:47:25.963Z,2.30
2022-09-15T13:50:34.523Z,5.10
2022-09-15T13:53:54.881Z,2.20
2022-09-15T13:56:40.030Z,1.90
2022-09-15T13:59:27.535Z,2.20
2022-09-15T14:02:09.746Z,1.80
2022-09-15T14:04:52.295Z,1.60
2022-09-15T14:07:34.137Z,2.20
2022-09-15T14:10:24.483Z,2.00
2022-09-15T14:13:06.894Z,2.60
2022-09-15T14:16:11.778Z,1.70
2022-09-15T14:18:57.932Z,2.00
2022-09-15T14:21:51.306Z,1.70
2022-09-15T14:24:40.418Z,2.20
2022-09-15T14:27:26.412Z,1.90
2022-09-15T14:30:17.183Z,2.40
2022-09-15T14:33:02.316Z,2.10
2022-09-15T14:35:45.943Z,2.10
2022-09-15T14:38:27.777Z,2.50
2022-09-15T14:41:19.579Z,1.90
2022-09-15T14:44:02.115Z,1.70
2022-09-15T14:46:44.157Z,2.20
2022-09-15T14:49:25.991Z,2.50
2022-09-15T14:52:24.245Z,1.50
2022-09-15T14:55:12.246Z,2.10
2022-09-15T14:58:02.360Z,1.50
2022-09-15T15:00:56.075Z,1.80
2022-09-15T15:04:20.144Z,2.00
2022-09-15T15:07:09.709Z,1.70
2022-09-15T15:10:06.246Z,1.80
2022-09-15T15:12:59.061Z,2.40
2022-09-15T15:15:46.519Z,1.60
2022-09-15T15:18:42.231Z,1.40
2022-09-15T15:21:45.223Z,1.30
2022-09-15T15:24:27.042Z,1.70
2022-09-15T15:27:33.900Z,1.50
2022-09-15T15:30:26.673Z,1.60
2022-09-15T15:33:19.543Z,1.80
2022-09-15T15:36:07.835Z,1.50
2022-09-15T15:38:53.768Z,1.40
2022-09-15T15:41:41.023Z,1.70
2022-09-15T15:44:28.037Z,1.80
2022-09-15T15:47:12.597Z,17.20
2022-09-15T15:50:12.732Z,3.10
2022-09-15T15:52:55.808Z,2.00
2022-09-15T15:55:40.781Z,2.00
2022-09-15T15:58:22.832Z,2.10
2022-09-15T16:01:05.117Z,2.30
2022-09-15T16:03:47.031Z,2.00
2022-09-15T16:06:29.095Z,1.80
2022-09-15T16:09:13.720Z,1.80
2022-09-15T16:14:42.730Z,1.90
2022-09-15T16:17:24.629Z,1.80
2022-09-15T16:20:07.903Z,1.80
2022-09-15T16:22:49.864Z,2.00
2022-09-15T16:25:39.967Z,2.20
2022-09-15T16:28:22.026Z,2.30
2022-09-15T16:31:04.643Z,2.10
2022-09-15T16:33:46.485Z,2.40
2022-09-15T16:36:28.333Z,2.70
2022-09-15T16:39:10.143Z,2.30
2022-09-15T16:41:51.909Z,2.20
2022-09-15T16:44:33.753Z,2.10
2022-09-15T16:47:15.573Z,2.30
2022-09-15T16:49:57.451Z,1.90
2022-09-15T16:52:39.337Z,2.10
2022-09-15T16:55:42.992Z,2.30
2022-09-15T16:58:24.786Z,2.10
2022-09-15T17:01:08.222Z,2.20
2022-09-15T17:03:50.191Z,2.00
2022-09-15T17:06:32.143Z,2.10
2022-09-15T17:09:14.046Z,2.10
2022-09-15T17:11:56.477Z,2.20
2022-09-15T17:14:38.409Z,2.10
2022-09-15T17:17:24.967Z,1.80
2022-09-15T17:20:07.459Z,1.90
2022-09-15T17:22:50.393Z,2.00
2022-09-15T17:25:40.026Z,2.10
2022-09-15T17:28:26.792Z,2.90
2022-09-15T17:31:17.175Z,3.00
2022-09-15T17:36:41.280Z,2.70
2022-09-15T17:39:23.268Z,2.60
2022-09-15T17:42:05.506Z,3.30
2022-09-15T17:44:47.419Z,2.50
2022-09-15T17:47:31.119Z,2.60
2022-09-15T17:50:13.521Z,2.90
2022-09-15T17:52:57.247Z,2.80
2022-09-15T17:55:39.999Z,2.60
2022-09-15T17:58:23.732Z,3.00
2022-09-15T18:01:06.736Z,3.90
2022-09-15T18:03:49.676Z,18.30
2022-09-15T18:06:32.086Z,10.80
2022-09-15T18:09:15.788Z,6.70
2022-09-15T18:11:57.982Z,7.20
2022-09-15T18:14:41.728Z,6.70
2022-09-15T18:17:27.631Z,8.80
2022-09-15T18:20:14.563Z,6.30
2022-09-15T18:22:57.158Z,5.60
2022-09-15T18:25:39.073Z,5.90
2022-09-15T18:28:21.007Z,4.80
2022-09-15T18:31:03.368Z,4.80
2022-09-15T18:33:45.649Z,4.40
2022-09-15T18:36:28.069Z,4.80
2022-09-15T18:39:12.333Z,4.90
2022-09-15T18:41:54.495Z,5.70
2022-09-15T18:44:36.365Z,6.00
2022-09-15T18:47:18.131Z,6.60
2022-09-15T18:50:01.137Z,6.90
2022-09-15T18:52:43.451Z,5.60
2022-09-15T18:55:25.840Z,4.80
2022-09-15T18:58:08.021Z,4.80
2022-09-15T19:01:05.499Z,4.50
2022-09-15T19:03:57.191Z,4.50
2022-09-15T19:06:39.320Z,4.30
2022-09-15T19:09:22.239Z,3.90
2022-09-15T19:12:06.052Z,4.50
2022-09-15T19:14:48.679Z,3.80
2022-09-15T19:17:30.524Z,4.20
2022-09-15T19:20:15.582Z,3.80
2022-09-15T19:22:58.605Z,5.50
2022-09-15T19:25:44.186Z,5.10
2022-09-15T19:28:27.161Z,4.40
2022-09-15T19:31:12.711Z,6.20
2022-09-15T19:33:54.784Z,4.30
2022-09-15T19:36:36.937Z,3.50
2022-09-15T19:39:23.002Z,3.40
2022-09-15T19:42:06.007Z,4.40
2022-09-15T19:44:49.547Z,3.50
2022-09-15T19:47:31.432Z,3.50
2022-09-15T19:50:13.304Z,3.70
2022-09-15T19:52:59.480Z,4.10
2022-09-15T19:55:41.713Z,3.10
2022-09-15T19:58:23.817Z,3.20
2022-09-15T20:01:05.684Z,3.20
2022-09-15T20:03:50.087Z,3.40
2022-09-15T20:06:52.473Z,3.90
2022-09-15T20:09:38.097Z,2.60
2022-09-15T20:15:04.863Z,2.40
2022-09-15T20:17:47.489Z,2.50
2022-09-15T20:20:32.228Z,2.60
2022-09-15T20:23:16.091Z,2.40
2022-09-15T20:26:04.492Z,2.20
2022-09-15T20:28:48.692Z,2.70
2022-09-15T20:31:33.767Z,2.00
2022-09-15T20:34:16.675Z,2.80
2022-09-15T20:36:59.415Z,2.60
2022-09-15T20:39:41.949Z,2.70
2022-09-15T20:42:24.565Z,2.40
2022-09-15T20:45:07.542Z,2.40
2022-09-15T20:47:49.953Z,2.50
2022-09-15T20:50:32.561Z,1.90
2022-09-15T20:53:15.175Z,2.30
2022-09-15T20:55:57.342Z,2.40
2022-09-15T20:58:40.399Z,2.20
2022-09-15T21:01:25.432Z,2.60
2022-09-15T21:04:10.574Z,2.70
2022-09-15T21:06:54.246Z,2.30
2022-09-15T21:09:36.295Z,2.10
2022-09-15T21:12:18.408Z,2.80
2022-09-15T21:15:00.295Z,3.50
2022-09-15T21:17:42.066Z,3.50
2022-09-15T21:20:24.033Z,3.90
2022-09-15T21:23:05.795Z,3.50
2022-09-15T21:25:47.572Z,2.80
2022-09-15T21:28:30.579Z,2.40
2022-09-15T21:31:18.190Z,3.00
2022-09-15T21:34:00.449Z,3.10
2022-09-15T21:36:42.197Z,3.40
2022-09-15T21:39:24.329Z,4.90
2022-09-15T21:42:06.413Z,6.10
2022-09-15T21:44:48.807Z,6.80
2022-09-15T21:47:31.655Z,4.70
2022-09-15T21:50:13.396Z,3.80
2022-09-15T21:52:55.354Z,3.00
2022-09-15T21:55:37.842Z,2.50
2022-09-15T21:58:21.199Z,2.50
2022-09-15T22:01:19.053Z,2.50
2022-09-15T22:04:02.352Z,2.30
2022-09-15T22:06:44.992Z,2.60
2022-09-15T22:09:26.908Z,2.30
2022-09-15T22:12:08.789Z,2.50
2022-09-15T22:14:50.978Z,2.40
2022-09-15T22:17:32.741Z,2.10
2022-09-15T22:20:14.892Z,2.20
2022-09-15T22:23:00.271Z,2.10
2022-09-15T22:25:42.048Z,2.20
2022-09-15T22:28:23.833Z,2.20
2022-09-15T22:31:08.730Z,2.30
2022-09-15T22:33:51.386Z,2.30
2022-09-15T22:36:33.778Z,2.20
2022-09-15T22:39:15.570Z,2.40
2022-09-15T22:41:57.478Z,2.30
2022-09-15T22:44:39.622Z,2.20
2022-09-15T22:47:21.714Z,2.10
2022-09-15T22:50:03.645Z,2.00
2022-09-15T22:52:45.425Z,2.20
2022-09-15T22:55:27.605Z,1.90
2022-09-15T22:58:09.534Z,1.90
2022-09-15T23:00:51.452Z,2.10
2022-09-15T23:03:33.926Z,2.30
2022-09-15T23:06:15.723Z,2.10
2022-09-15T23:09:01.029Z,1.90
2022-09-15T23:11:42.888Z,1.80
2022-09-15T23:14:24.706Z,2.20
2022-09-15T23:17:06.448Z,2.40
2022-09-15T23:19:48.545Z,2.50
2022-09-15T23:22:30.283Z,2.30
2022-09-15T23:25:11.989Z,1.90
2022-09-15T23:27:53.739Z,2.50
2022-09-15T23:30:35.491Z,2.00
2022-09-15T23:33:17.258Z,2.30
2022-09-15T23:36:00.919Z,2.30
2022-09-15T23:38:44.278Z,2.20
2022-09-15T23:41:26.299Z,2.40
2022-09-15T23:44:08.424Z,2.40
2022-09-15T23:46:50.237Z,2.30
2022-09-15T23:49:32.017Z,2.10
2022-09-15T23:52:13.823Z,2.60
2022-09-15T23:54:56.069Z,2.40
2022-09-15T23:57:37.851Z,2.30
